sensor_id;sensor_type;location;lat;lon;timestamp;P1;durP1;ratioP1;P2;durP2;ratioP2
39264;SDS011;42646;51.910;7.724;2023-11-18T00:01:55;20.38;;;13.32;;
39264;SDS011;42646;51.910;7.724;2023-11-18T00:04:23;20.45;;;13.48;;
39264;SDS011;42646;51.910;7.724;2023-11-18T00:06:51;19.27;;;13.20;;
39264;SDS011;42646;51.910;7.724;2023-11-18T00:09:20;20.70;;;13.43;;
39264;SDS011;42646;51.910;7.724;2023-11-18T00:11:51;19.20;;;12.52;;
39264;SDS011;42646;51.910;7.724;2023-11-18T00:14:18;18.88;;;13.00;;
39264;SDS011;42646;51.910;7.724;2023-11-18T00:16:48;20.90;;;13.65;;
39264;SDS011;42646;51.910;7.724;2023-11-18T00:19:16;19.65;;;13.07;;
39264;SDS011;42646;51.910;7.724;2023-11-18T00:21:44;19.77;;;13.00;;
39264;SDS011;42646;51.910;7.724;2023-11-18T00:24:11;18.90;;;13.02;;
39264;SDS011;42646;51.910;7.724;2023-11-18T00:26:40;19.25;;;13.02;;
39264;SDS011;42646;51.910;7.724;2023-11-18T00:29:08;19.90;;;13.55;;
39264;SDS011;42646;51.910;7.724;2023-11-18T00:31:36;19.35;;;12.57;;
39264;SDS011;42646;51.910;7.724;2023-11-18T00:34:05;18.95;;;12.48;;
39264;SDS011;42646;51.910;7.724;2023-11-18T00:36:33;20.15;;;13.32;;
39264;SDS011;42646;51.910;7.724;2023-11-18T00:39:00;20.90;;;13.70;;
39264;SDS011;42646;51.910;7.724;2023-11-18T00:41:31;20.43;;;13.83;;
39264;SDS011;42646;51.910;7.724;2023-11-18T00:43:59;19.65;;;13.40;;
39264;SDS011;42646;51.910;7.724;2023-11-18T00:46:27;19.10;;;13.02;;
39264;SDS011;42646;51.910;7.724;2023-11-18T00:48:55;17.83;;;12.68;;
39264;SDS011;42646;51.910;7.724;2023-11-18T00:51:25;18.60;;;12.50;;
39264;SDS011;42646;51.910;7.724;2023-11-18T00:53:54;17.88;;;12.27;;
39264;SDS011;42646;51.910;7.724;2023-11-18T00:56:21;17.73;;;12.60;;
39264;SDS011;42646;51.910;7.724;2023-11-18T00:58:49;18.08;;;12.25;;
39264;SDS011;42646;51.910;7.724;2023-11-18T01:01:17;17.42;;;12.18;;
39264;SDS011;42646;51.910;7.724;2023-11-18T01:03:44;19.13;;;12.65;;
39264;SDS011;42646;51.910;7.724;2023-11-18T01:06:13;15.85;;;10.93;;
39264;SDS011;42646;51.910;7.724;2023-11-18T01:08:44;16.77;;;11.70;;
39264;SDS011;42646;51.910;7.724;2023-11-18T01:11:15;16.40;;;11.02;;
39264;SDS011;42646;51.910;7.724;2023-11-18T01:13:45;15.48;;;11.50;;
39264;SDS011;42646;51.910;7.724;2023-11-18T01:16:13;16.45;;;11.52;;
39264;SDS011;42646;51.910;7.724;2023-11-18T01:18:41;16.00;;;11.20;;
39264;SDS011;42646;51.910;7.724;2023-11-18T01:21:09;16.35;;;11.43;;
39264;SDS011;42646;51.910;7.724;2023-11-18T01:23:37;17.08;;;11.63;;
39264;SDS011;42646;51.910;7.724;2023-11-18T01:26:10;15.73;;;11.20;;
39264;SDS011;42646;51.910;7.724;2023-11-18T01:28:38;17.15;;;11.50;;
39264;SDS011;42646;51.910;7.724;2023-11-18T01:31:09;16.08;;;11.88;;
39264;SDS011;42646;51.910;7.724;2023-11-18T01:33:37;17.73;;;11.32;;
39264;SDS011;42646;51.910;7.724;2023-11-18T01:36:06;16.13;;;11.20;;
39264;SDS011;42646;51.910;7.724;2023-11-18T01:38:35;16.45;;;11.82;;
39264;SDS011;42646;51.910;7.724;2023-11-18T01:41:04;17.33;;;11.35;;
39264;SDS011;42646;51.910;7.724;2023-11-18T01:43:33;16.02;;;10.95;;
39264;SDS011;42646;51.910;7.724;2023-11-18T01:46:02;18.83;;;12.40;;
39264;SDS011;42646;51.910;7.724;2023-11-18T01:51:01;16.55;;;10.98;;
39264;SDS011;42646;51.910;7.724;2023-11-18T01:53:32;17.02;;;10.82;;
39264;SDS011;42646;51.910;7.724;2023-11-18T01:56:02;15.57;;;11.05;;
39264;SDS011;42646;51.910;7.724;2023-11-18T01:58:33;16.77;;;11.05;;
39264;SDS011;42646;51.910;7.724;2023-11-18T02:01:02;15.38;;;11.15;;
39264;SDS011;42646;51.910;7.724;2023-11-18T02:03:34;14.40;;;10.60;;
39264;SDS011;42646;51.910;7.724;2023-11-18T02:06:04;16.63;;;11.13;;
39264;SDS011;42646;51.910;7.724;2023-11-18T02:08:36;16.92;;;11.13;;
39264;SDS011;42646;51.910;7.724;2023-11-18T02:11:05;18.55;;;10.95;;
39264;SDS011;42646;51.910;7.724;2023-11-18T02:13:42;16.92;;;11.38;;
39264;SDS011;42646;51.910;7.724;2023-11-18T02:16:15;17.02;;;10.85;;
39264;SDS011;42646;51.910;7.724;2023-11-18T02:18:44;15.90;;;10.52;;
39264;SDS011;42646;51.910;7.724;2023-11-18T02:21:15;16.45;;;10.55;;
39264;SDS011;42646;51.910;7.724;2023-11-18T02:23:44;16.20;;;11.02;;
39264;SDS011;42646;51.910;7.724;2023-11-18T02:26:21;16.90;;;10.85;;
39264;SDS011;42646;51.910;7.724;2023-11-18T02:28:50;16.92;;;10.93;;
39264;SDS011;42646;51.910;7.724;2023-11-18T02:31:20;17.90;;;11.25;;
39264;SDS011;42646;51.910;7.724;2023-11-18T02:33:54;17.65;;;10.20;;
39264;SDS011;42646;51.910;7.724;2023-11-18T02:36:31;14.88;;;10.18;;
39264;SDS011;42646;51.910;7.724;2023-11-18T02:39:04;15.48;;;10.13;;
39264;SDS011;42646;51.910;7.724;2023-11-18T02:41:36;16.08;;;10.88;;
39264;SDS011;42646;51.910;7.724;2023-11-18T02:44:06;15.90;;;10.37;;
39264;SDS011;42646;51.910;7.724;2023-11-18T02:46:36;17.92;;;11.20;;
39264;SDS011;42646;51.910;7.724;2023-11-18T02:49:05;17.70;;;11.50;;
39264;SDS011;42646;51.910;7.724;2023-11-18T02:51:33;17.90;;;11.07;;
39264;SDS011;42646;51.910;7.724;2023-11-18T02:56:38;16.60;;;10.63;;
39264;SDS011;42646;51.910;7.724;2023-11-18T02:59:05;16.85;;;10.27;;
39264;SDS011;42646;51.910;7.724;2023-11-18T03:01:33;17.63;;;10.68;;
39264;SDS011;42646;51.910;7.724;2023-11-18T03:04:01;16.10;;;9.63;;
39264;SDS011;42646;51.910;7.724;2023-11-18T03:06:31;16.65;;;11.20;;
39264;SDS011;42646;51.910;7.724;2023-11-18T03:09:00;16.35;;;11.00;;
39264;SDS011;42646;51.910;7.724;2023-11-18T03:11:27;17.08;;;10.65;;
39264;SDS011;42646;51.910;7.724;2023-11-18T03:13:57;17.33;;;11.30;;
39264;SDS011;42646;51.910;7.724;2023-11-18T03:16:25;16.42;;;10.43;;
39264;SDS011;42646;51.910;7.724;2023-11-18T03:18:53;15.05;;;10.23;;
39264;SDS011;42646;51.910;7.724;2023-11-18T03:21:21;17.25;;;10.75;;
39264;SDS011;42646;51.910;7.724;2023-11-18T03:23:50;14.80;;;10.38;;
39264;SDS011;42646;51.910;7.724;2023-11-18T03:26:17;17.17;;;11.02;;
39264;SDS011;42646;51.910;7.724;2023-11-18T03:28:45;17.10;;;10.32;;
39264;SDS011;42646;51.910;7.724;2023-11-18T03:31:14;17.05;;;10.77;;
39264;SDS011;42646;51.910;7.724;2023-11-18T03:33:42;15.25;;;10.15;;
39264;SDS011;42646;51.910;7.724;2023-11-18T03:36:10;19.42;;;11.43;;
39264;SDS011;42646;51.910;7.724;2023-11-18T03:38:39;17.08;;;10.32;;
39264;SDS011;42646;51.910;7.724;2023-11-18T03:41:07;17.92;;;10.15;;
39264;SDS011;42646;51.910;7.724;2023-11-18T03:43:36;18.38;;;10.73;;
39264;SDS011;42646;51.910;7.724;2023-11-18T03:46:04;17.98;;;10.15;;
39264;SDS011;42646;51.910;7.724;2023-11-18T03:48:36;15.73;;;10.60;;
39264;SDS011;42646;51.910;7.724;2023-11-18T03:51:04;16.75;;;10.55;;
39264;SDS011;42646;51.910;7.724;2023-11-18T03:53:31;16.50;;;10.23;;
39264;SDS011;42646;51.910;7.724;2023-11-18T03:56:00;17.20;;;10.00;;
39264;SDS011;42646;51.910;7.724;2023-11-18T03:58:28;17.80;;;11.25;;
39264;SDS011;42646;51.910;7.724;2023-11-18T04:00:59;15.25;;;9.95;;
39264;SDS011;42646;51.910;7.724;2023-11-18T04:03:27;16.05;;;10.88;;
39264;SDS011;42646;51.910;7.724;2023-11-18T04:05:56;16.65;;;10.25;;
39264;SDS011;42646;51.910;7.724;2023-11-18T04:08:24;17.88;;;10.82;;
39264;SDS011;42646;51.910;7.724;2023-11-18T04:10:51;17.63;;;10.75;;
39264;SDS011;42646;51.910;7.724;2023-11-18T04:13:19;15.10;;;10.52;;
39264;SDS011;42646;51.910;7.724;2023-11-18T04:15:47;19.38;;;10.52;;
39264;SDS011;42646;51.910;7.724;2023-11-18T04:18:15;17.70;;;11.00;;
39264;SDS011;42646;51.910;7.724;2023-11-18T04:20:42;16.05;;;9.85;;
39264;SDS011;42646;51.910;7.724;2023-11-18T04:23:11;18.65;;;10.70;;
39264;SDS011;42646;51.910;7.724;2023-11-18T04:25:40;14.95;;;9.38;;
39264;SDS011;42646;51.910;7.724;2023-11-18T04:28:08;16.65;;;10.45;;
39264;SDS011;42646;51.910;7.724;2023-11-18T04:30:36;16.77;;;10.60;;
39264;SDS011;42646;51.910;7.724;2023-11-18T04:33:04;14.88;;;9.52;;
39264;SDS011;42646;51.910;7.724;2023-11-18T04:35:32;15.45;;;8.98;;
39264;SDS011;42646;51.910;7.724;2023-11-18T04:38:01;15.93;;;9.95;;
39264;SDS011;42646;51.910;7.724;2023-11-18T04:40:30;19.10;;;9.77;;
39264;SDS011;42646;51.910;7.724;2023-11-18T04:42:57;15.27;;;10.13;;
39264;SDS011;42646;51.910;7.724;2023-11-18T04:45:26;20.35;;;10.60;;
39264;SDS011;42646;51.910;7.724;2023-11-18T04:47:54;16.83;;;9.80;;
39264;SDS011;42646;51.910;7.724;2023-11-18T04:50:22;16.08;;;10.00;;
39264;SDS011;42646;51.910;7.724;2023-11-18T04:52:49;14.30;;;9.98;;
39264;SDS011;42646;51.910;7.724;2023-11-18T04:55:17;16.58;;;10.63;;
39264;SDS011;42646;51.910;7.724;2023-11-18T04:57:46;16.90;;;10.65;;
39264;SDS011;42646;51.910;7.724;2023-11-18T05:00:14;14.82;;;9.95;;
39264;SDS011;42646;51.910;7.724;2023-11-18T05:02:43;20.58;;;9.52;;
39264;SDS011;42646;51.910;7.724;2023-11-18T05:05:14;15.70;;;9.80;;
39264;SDS011;42646;51.910;7.724;2023-11-18T05:07:42;16.67;;;10.00;;
39264;SDS011;42646;51.910;7.724;2023-11-18T05:10:10;17.20;;;10.80;;
39264;SDS011;42646;51.910;7.724;2023-11-18T05:12:38;16.27;;;9.77;;
39264;SDS011;42646;51.910;7.724;2023-11-18T05:15:08;18.15;;;9.90;;
39264;SDS011;42646;51.910;7.724;2023-11-18T05:17:36;15.55;;;9.60;;
39264;SDS011;42646;51.910;7.724;2023-11-18T05:20:05;15.20;;;10.07;;
39264;SDS011;42646;51.910;7.724;2023-11-18T05:22:35;16.67;;;10.18;;
39264;SDS011;42646;51.910;7.724;2023-11-18T05:25:03;18.13;;;10.60;;
39264;SDS011;42646;51.910;7.724;2023-11-18T05:27:31;16.88;;;10.02;;
39264;SDS011;42646;51.910;7.724;2023-11-18T05:29:59;18.33;;;10.50;;
39264;SDS011;42646;51.910;7.724;2023-11-18T05:32:28;17.50;;;9.73;;
39264;SDS011;42646;51.910;7.724;2023-11-18T05:34:56;16.38;;;10.15;;
39264;SDS011;42646;51.910;7.724;2023-11-18T05:37:24;17.23;;;10.00;;
39264;SDS011;42646;51.910;7.724;2023-11-18T05:39:54;17.27;;;10.38;;
39264;SDS011;42646;51.910;7.724;2023-11-18T05:42:32;15.70;;;10.00;;
39264;SDS011;42646;51.910;7.724;2023-11-18T05:45:03;16.45;;;9.52;;
39264;SDS011;42646;51.910;7.724;2023-11-18T05:47:34;16.40;;;9.82;;
39264;SDS011;42646;51.910;7.724;2023-11-18T05:50:03;16.60;;;9.70;;
39264;SDS011;42646;51.910;7.724;2023-11-18T05:52:32;16.85;;;9.63;;
39264;SDS011;42646;51.910;7.724;2023-11-18T05:55:00;16.67;;;10.02;;
39264;SDS011;42646;51.910;7.724;2023-11-18T05:57:28;16.40;;;9.68;;
39264;SDS011;42646;51.910;7.724;2023-11-18T05:59:56;15.68;;;9.05;;
39264;SDS011;42646;51.910;7.724;2023-11-18T06:02:23;16.90;;;9.43;;
39264;SDS011;42646;51.910;7.724;2023-11-18T06:04:52;15.55;;;9.55;;
39264;SDS011;42646;51.910;7.724;2023-11-18T06:07:21;17.23;;;9.35;;
39264;SDS011;42646;51.910;7.724;2023-11-18T06:09:49;15.93;;;9.02;;
39264;SDS011;42646;51.910;7.724;2023-11-18T06:12:17;15.90;;;9.52;;
39264;SDS011;42646;51.910;7.724;2023-11-18T06:14:44;16.67;;;10.13;;
39264;SDS011;42646;51.910;7.724;2023-11-18T06:17:13;16.25;;;9.38;;
39264;SDS011;42646;51.910;7.724;2023-11-18T06:19:41;14.80;;;8.88;;
39264;SDS011;42646;51.910;7.724;2023-11-18T06:22:10;17.25;;;9.68;;
39264;SDS011;42646;51.910;7.724;2023-11-18T06:24:37;15.63;;;9.68;;
39264;SDS011;42646;51.910;7.724;2023-11-18T06:27:05;14.93;;;8.50;;
39264;SDS011;42646;51.910;7.724;2023-11-18T06:29:34;14.82;;;9.18;;
39264;SDS011;42646;51.910;7.724;2023-11-18T06:32:02;15.25;;;8.95;;
39264;SDS011;42646;51.910;7.724;2023-11-18T06:34:32;14.73;;;8.65;;
39264;SDS011;42646;51.910;7.724;2023-11-18T06:37:00;16.38;;;9.85;;
39264;SDS011;42646;51.910;7.724;2023-11-18T06:39:29;16.08;;;9.60;;
39264;SDS011;42646;51.910;7.724;2023-11-18T06:42:01;14.75;;;8.95;;
39264;SDS011;42646;51.910;7.724;2023-11-18T06:44:31;16.10;;;9.23;;
39264;SDS011;42646;51.910;7.724;2023-11-18T06:46:59;16.52;;;9.32;;
39264;SDS011;42646;51.910;7.724;2023-11-18T06:49:28;15.57;;;9.55;;
39264;SDS011;42646;51.910;7.724;2023-11-18T06:51:56;15.25;;;8.88;;
39264;SDS011;42646;51.910;7.724;2023-11-18T06:54:23;14.10;;;8.73;;
39264;SDS011;42646;51.910;7.724;2023-11-18T06:56:54;15.80;;;9.25;;
39264;SDS011;42646;51.910;7.724;2023-11-18T06:59:22;17.42;;;9.20;;
39264;SDS011;42646;51.910;7.724;2023-11-18T07:01:50;15.90;;;9.15;;
39264;SDS011;42646;51.910;7.724;2023-11-18T07:04:18;16.10;;;9.48;;
39264;SDS011;42646;51.910;7.724;2023-11-18T07:06:46;15.07;;;8.98;;
39264;SDS011;42646;51.910;7.724;2023-11-18T07:09:13;14.95;;;9.20;;
39264;SDS011;42646;51.910;7.724;2023-11-18T07:11:45;15.82;;;8.57;;
39264;SDS011;42646;51.910;7.724;2023-11-18T07:14:15;15.10;;;9.00;;
39264;SDS011;42646;51.910;7.724;2023-11-18T07:16:43;14.70;;;8.25;;
39264;SDS011;42646;51.910;7.724;2023-11-18T07:19:11;14.00;;;8.57;;
39264;SDS011;42646;51.910;7.724;2023-11-18T07:21:46;13.63;;;8.40;;
39264;SDS011;42646;51.910;7.724;2023-11-18T07:24:13;13.98;;;9.13;;
39264;SDS011;42646;51.910;7.724;2023-11-18T07:26:41;12.68;;;8.82;;
39264;SDS011;42646;51.910;7.724;2023-11-18T07:29:10;14.93;;;8.95;;
39264;SDS011;42646;51.910;7.724;2023-11-18T07:31:39;17.70;;;10.20;;
39264;SDS011;42646;51.910;7.724;2023-11-18T07:34:07;14.32;;;8.63;;
39264;SDS011;42646;51.910;7.724;2023-11-18T07:36:34;14.10;;;8.65;;
39264;SDS011;42646;51.910;7.724;2023-11-18T07:39:02;15.70;;;10.07;;
39264;SDS011;42646;51.910;7.724;2023-11-18T07:41:30;15.07;;;8.93;;
39264;SDS011;42646;51.910;7.724;2023-11-18T07:43:59;17.05;;;9.63;;
39264;SDS011;42646;51.910;7.724;2023-11-18T07:46:28;13.02;;;8.50;;
39264;SDS011;42646;51.910;7.724;2023-11-18T07:48:59;14.75;;;9.18;;
39264;SDS011;42646;51.910;7.724;2023-11-18T07:51:28;14.60;;;9.07;;
39264;SDS011;42646;51.910;7.724;2023-11-18T07:53:56;15.32;;;9.40;;
39264;SDS011;42646;51.910;7.724;2023-11-18T07:56:24;16.20;;;9.60;;
39264;SDS011;42646;51.910;7.724;2023-11-18T07:58:53;17.27;;;9.65;;
39264;SDS011;42646;51.910;7.724;2023-11-18T08:01:21;16.98;;;9.00;;
39264;SDS011;42646;51.910;7.724;2023-11-18T08:03:48;16.83;;;9.75;;
39264;SDS011;42646;51.910;7.724;2023-11-18T08:06:18;15.27;;;9.45;;
39264;SDS011;42646;51.910;7.724;2023-11-18T08:08:47;15.45;;;9.23;;
39264;SDS011;42646;51.910;7.724;2023-11-18T08:11:15;14.55;;;8.38;;
39264;SDS011;42646;51.910;7.724;2023-11-18T08:13:43;15.20;;;8.70;;
39264;SDS011;42646;51.910;7.724;2023-11-18T08:16:11;14.32;;;8.95;;
39264;SDS011;42646;51.910;7.724;2023-11-18T08:18:41;16.45;;;9.75;;
39264;SDS011;42646;51.910;7.724;2023-11-18T08:21:08;15.93;;;9.50;;
39264;SDS011;42646;51.910;7.724;2023-11-18T08:23:38;15.80;;;9.85;;
39264;SDS011;42646;51.910;7.724;2023-11-18T08:26:06;16.83;;;9.48;;
39264;SDS011;42646;51.910;7.724;2023-11-18T08:28:34;16.95;;;9.88;;
39264;SDS011;42646;51.910;7.724;2023-11-18T08:31:01;15.45;;;9.10;;
39264;SDS011;42646;51.910;7.724;2023-11-18T08:33:29;15.18;;;9.25;;
39264;SDS011;42646;51.910;7.724;2023-11-18T08:35:57;18.33;;;10.27;;
39264;SDS011;42646;51.910;7.724;2023-11-18T08:38:25;16.77;;;10.10;;
39264;SDS011;42646;51.910;7.724;2023-11-18T08:40:55;15.50;;;9.98;;
39264;SDS011;42646;51.910;7.724;2023-11-18T08:43:23;16.85;;;10.50;;
39264;SDS011;42646;51.910;7.724;2023-11-18T08:45:51;14.88;;;9.57;;
39264;SDS011;42646;51.910;7.724;2023-11-18T08:48:19;16.67;;;10.60;;
39264;SDS011;42646;51.910;7.724;2023-11-18T08:50:49;15.45;;;9.90;;
39264;SDS011;42646;51.910;7.724;2023-11-18T08:53:17;16.77;;;10.38;;
39264;SDS011;42646;51.910;7.724;2023-11-18T08:58:21;17.45;;;10.32;;
39264;SDS011;42646;51.910;7.724;2023-11-18T09:00:53;16.73;;;9.88;;
39264;SDS011;42646;51.910;7.724;2023-11-18T09:03:23;15.38;;;9.88;;
39264;SDS011;42646;51.910;7.724;2023-11-18T09:08:26;17.38;;;10.35;;
39264;SDS011;42646;51.910;7.724;2023-11-18T09:10:56;16.95;;;10.50;;
39264;SDS011;42646;51.910;7.724;2023-11-18T09:13:25;16.02;;;10.25;;
39264;SDS011;42646;51.910;7.724;2023-11-18T09:15:55;17.20;;;11.18;;
39264;SDS011;42646;51.910;7.724;2023-11-18T09:18:23;17.88;;;11.38;;
39264;SDS011;42646;51.910;7.724;2023-11-18T09:20:52;17.55;;;10.75;;
39264;SDS011;42646;51.910;7.724;2023-11-18T09:23:21;17.85;;;10.73;;
39264;SDS011;42646;51.910;7.724;2023-11-18T09:25:51;16.53;;;10.53;;
39264;SDS011;42646;51.910;7.724;2023-11-18T09:28:21;17.63;;;11.00;;
39264;SDS011;42646;51.910;7.724;2023-11-18T09:30:53;19.40;;;12.02;;
39264;SDS011;42646;51.910;7.724;2023-11-18T09:33:23;22.35;;;12.52;;
39264;SDS011;42646;51.910;7.724;2023-11-18T09:36:00;17.67;;;11.10;;
39264;SDS011;42646;51.910;7.724;2023-11-18T09:38:29;18.50;;;12.13;;
39264;SDS011;42646;51.910;7.724;2023-11-18T09:40:58;18.10;;;12.63;;
39264;SDS011;42646;51.910;7.724;2023-11-18T09:43:29;19.42;;;12.48;;
39264;SDS011;42646;51.910;7.724;2023-11-18T09:46:03;19.02;;;12.05;;
39264;SDS011;42646;51.910;7.724;2023-11-18T09:48:42;20.10;;;12.55;;
39264;SDS011;42646;51.910;7.724;2023-11-18T09:51:14;21.30;;;12.68;;
39264;SDS011;42646;51.910;7.724;2023-11-18T09:53:48;18.55;;;12.45;;
39264;SDS011;42646;51.910;7.724;2023-11-18T09:56:19;20.50;;;12.05;;
39264;SDS011;42646;51.910;7.724;2023-11-18T09:59:05;19.33;;;12.30;;
39264;SDS011;42646;51.910;7.724;2023-11-18T10:01:43;18.73;;;11.40;;
39264;SDS011;42646;51.910;7.724;2023-11-18T10:04:13;18.73;;;11.80;;
39264;SDS011;42646;51.910;7.724;2023-11-18T10:06:44;18.55;;;11.88;;
39264;SDS011;42646;51.910;7.724;2023-11-18T10:09:13;19.38;;;12.10;;
39264;SDS011;42646;51.910;7.724;2023-11-18T10:14:14;20.63;;;11.90;;
39264;SDS011;42646;51.910;7.724;2023-11-18T10:16:44;18.02;;;11.60;;
39264;SDS011;42646;51.910;7.724;2023-11-18T10:19:15;17.65;;;11.88;;
39264;SDS011;42646;51.910;7.724;2023-11-18T10:21:44;19.83;;;12.27;;
39264;SDS011;42646;51.910;7.724;2023-11-18T10:24:15;18.98;;;12.80;;
39264;SDS011;42646;51.910;7.724;2023-11-18T10:26:46;21.05;;;12.27;;
39264;SDS011;42646;51.910;7.724;2023-11-18T10:29:23;18.83;;;11.88;;
39264;SDS011;42646;51.910;7.724;2023-11-18T10:32:04;18.35;;;11.23;;
39264;SDS011;42646;51.910;7.724;2023-11-18T10:34:34;18.80;;;12.05;;
39264;SDS011;42646;51.910;7.724;2023-11-18T10:37:02;17.27;;;10.98;;
39264;SDS011;42646;51.910;7.724;2023-11-18T10:39:31;19.65;;;11.95;;
39264;SDS011;42646;51.910;7.724;2023-11-18T10:42:01;16.90;;;11.07;;
39264;SDS011;42646;51.910;7.724;2023-11-18T10:44:30;19.73;;;11.57;;
39264;SDS011;42646;51.910;7.724;2023-11-18T10:46:57;16.38;;;10.80;;
39264;SDS011;42646;51.910;7.724;2023-11-18T10:49:27;16.63;;;10.68;;
39264;SDS011;42646;51.910;7.724;2023-11-18T10:54:30;16.90;;;10.85;;
39264;SDS011;42646;51.910;7.724;2023-11-18T10:56:58;16.00;;;10.15;;
39264;SDS011;42646;51.910;7.724;2023-11-18T10:59:33;15.13;;;10.23;;
39264;SDS011;42646;51.910;7.724;2023-11-18T11:02:17;16.45;;;10.30;;
39264;SDS011;42646;51.910;7.724;2023-11-18T11:04:49;13.48;;;9.40;;
39264;SDS011;42646;51.910;7.724;2023-11-18T11:07:17;15.68;;;10.43;;
39264;SDS011;42646;51.910;7.724;2023-11-18T11:09:46;15.60;;;10.45;;
39264;SDS011;42646;51.910;7.724;2023-11-18T11:12:15;15.27;;;9.38;;
39264;SDS011;42646;51.910;7.724;2023-11-18T11:14:46;15.07;;;9.05;;
39264;SDS011;42646;51.910;7.724;2023-11-18T11:17:21;14.50;;;9.27;;
39264;SDS011;42646;51.910;7.724;2023-11-18T11:20:02;15.10;;;9.43;;
39264;SDS011;42646;51.910;7.724;2023-11-18T11:22:46;14.30;;;8.48;;
39264;SDS011;42646;51.910;7.724;2023-11-18T11:25:27;15.18;;;9.23;;
39264;SDS011;42646;51.910;7.724;2023-11-18T11:28:03;12.70;;;8.07;;
39264;SDS011;42646;51.910;7.724;2023-11-18T11:30:40;13.27;;;8.57;;
39264;SDS011;42646;51.910;7.724;2023-11-18T11:33:18;13.52;;;9.13;;
39264;SDS011;42646;51.910;7.724;2023-11-18T11:35:56;12.80;;;8.18;;
39264;SDS011;42646;51.910;7.724;2023-11-18T11:38:24;12.18;;;7.80;;
39264;SDS011;42646;51.910;7.724;2023-11-18T11:40:55;11.85;;;7.70;;
39264;SDS011;42646;51.910;7.724;2023-11-18T11:43:27;12.60;;;7.57;;
39264;SDS011;42646;51.910;7.724;2023-11-18T11:45:55;14.20;;;8.27;;
39264;SDS011;42646;51.910;7.724;2023-11-18T11:48:23;10.65;;;7.15;;
39264;SDS011;42646;51.910;7.724;2023-11-18T11:51:14;11.95;;;8.15;;
39264;SDS011;42646;51.910;7.724;2023-11-18T11:53:53;11.07;;;7.50;;
39264;SDS011;42646;51.910;7.724;2023-11-18T11:56:39;11.35;;;7.40;;
39264;SDS011;42646;51.910;7.724;2023-11-18T11:59:07;10.23;;;6.90;;
39264;SDS011;42646;51.910;7.724;2023-11-18T12:01:37;11.40;;;7.03;;
39264;SDS011;42646;51.910;7.724;2023-11-18T12:04:08;11.07;;;6.88;;
39264;SDS011;42646;51.910;7.724;2023-11-18T12:06:48;11.15;;;7.05;;
39264;SDS011;42646;51.910;7.724;2023-11-18T12:09:29;10.05;;;6.70;;
39264;SDS011;42646;51.910;7.724;2023-11-18T12:11:59;10.93;;;6.70;;
39264;SDS011;42646;51.910;7.724;2023-11-18T12:14:29;11.80;;;6.97;;
39264;SDS011;42646;51.910;7.724;2023-11-18T12:17:07;12.68;;;6.53;;
39264;SDS011;42646;51.910;7.724;2023-11-18T12:19:37;10.02;;;6.55;;
39264;SDS011;42646;51.910;7.724;2023-11-18T12:22:17;9.88;;;6.38;;
39264;SDS011;42646;51.910;7.724;2023-11-18T12:27:56;13.75;;;7.03;;
39264;SDS011;42646;51.910;7.724;2023-11-18T12:30:37;10.05;;;6.05;;
39264;SDS011;42646;51.910;7.724;2023-11-18T12:33:10;11.52;;;6.63;;
39264;SDS011;42646;51.910;7.724;2023-11-18T12:35:52;10.10;;;6.07;;
39264;SDS011;42646;51.910;7.724;2023-11-18T12:38:58;9.50;;;6.50;;
39264;SDS011;42646;51.910;7.724;2023-11-18T12:41:43;11.10;;;6.25;;
39264;SDS011;42646;51.910;7.724;2023-11-18T12:44:27;10.70;;;6.32;;
39264;SDS011;42646;51.910;7.724;2023-11-18T12:46:59;9.40;;;6.20;;
39264;SDS011;42646;51.910;7.724;2023-11-18T12:49:37;10.05;;;6.25;;
39264;SDS011;42646;51.910;7.724;2023-11-18T12:52:07;8.73;;;5.60;;
39264;SDS011;42646;51.910;7.724;2023-11-18T12:54:37;11.32;;;6.78;;
39264;SDS011;42646;51.910;7.724;2023-11-18T12:57:09;9.65;;;6.20;;
39264;SDS011;42646;51.910;7.724;2023-11-18T12:59:40;10.10;;;6.28;;
39264;SDS011;42646;51.910;7.724;2023-11-18T13:02:08;10.05;;;5.40;;
39264;SDS011;42646;51.910;7.724;2023-11-18T13:04:39;10.03;;;6.37;;
39264;SDS011;42646;51.910;7.724;2023-11-18T13:07:08;8.30;;;5.75;;
39264;SDS011;42646;51.910;7.724;2023-11-18T13:09:38;9.23;;;5.70;;
39264;SDS011;42646;51.910;7.724;2023-11-18T13:12:09;10.07;;;6.30;;
39264;SDS011;42646;51.910;7.724;2023-11-18T13:14:38;9.88;;;5.90;;
39264;SDS011;42646;51.910;7.724;2023-11-18T13:17:08;9.35;;;5.80;;
39264;SDS011;42646;51.910;7.724;2023-11-18T13:19:38;12.13;;;6.60;;
39264;SDS011;42646;51.910;7.724;2023-11-18T13:22:06;12.02;;;6.68;;
39264;SDS011;42646;51.910;7.724;2023-11-18T13:24:35;9.57;;;6.28;;
39264;SDS011;42646;51.910;7.724;2023-11-18T13:27:08;8.63;;;5.72;;
39264;SDS011;42646;51.910;7.724;2023-11-18T13:29:37;8.60;;;5.55;;
39264;SDS011;42646;51.910;7.724;2023-11-18T13:32:06;10.05;;;6.32;;
39264;SDS011;42646;51.910;7.724;2023-11-18T13:34:37;9.82;;;6.22;;
39264;SDS011;42646;51.910;7.724;2023-11-18T13:37:08;11.05;;;6.20;;
39264;SDS011;42646;51.910;7.724;2023-11-18T13:39:37;11.15;;;7.00;;
39264;SDS011;42646;51.910;7.724;2023-11-18T13:42:19;11.40;;;6.28;;
39264;SDS011;42646;51.910;7.724;2023-11-18T13:44:48;9.55;;;6.50;;
39264;SDS011;42646;51.910;7.724;2023-11-18T13:47:16;12.25;;;7.28;;
39264;SDS011;42646;51.910;7.724;2023-11-18T13:49:45;10.70;;;6.60;;
39264;SDS011;42646;51.910;7.724;2023-11-18T13:52:13;10.98;;;6.53;;
39264;SDS011;42646;51.910;7.724;2023-11-18T13:54:43;8.95;;;5.95;;
39264;SDS011;42646;51.910;7.724;2023-11-18T13:57:11;12.10;;;5.90;;
39264;SDS011;42646;51.910;7.724;2023-11-18T13:59:40;11.52;;;6.82;;
39264;SDS011;42646;51.910;7.724;2023-11-18T14:02:11;10.20;;;6.38;;
39264;SDS011;42646;51.910;7.724;2023-11-18T14:04:39;10.10;;;6.70;;
39264;SDS011;42646;51.910;7.724;2023-11-18T14:07:09;11.43;;;6.65;;
39264;SDS011;42646;51.910;7.724;2023-11-18T14:09:38;9.65;;;6.00;;
39264;SDS011;42646;51.910;7.724;2023-11-18T14:12:07;10.77;;;6.20;;
39264;SDS011;42646;51.910;7.724;2023-11-18T14:14:35;9.13;;;5.95;;
39264;SDS011;42646;51.910;7.724;2023-11-18T14:17:05;8.68;;;5.57;;
39264;SDS011;42646;51.910;7.724;2023-11-18T14:19:36;8.93;;;5.95;;
39264;SDS011;42646;51.910;7.724;2023-11-18T14:22:04;9.13;;;5.53;;
39264;SDS011;42646;51.910;7.724;2023-11-18T14:24:33;9.23;;;5.20;;
39264;SDS011;42646;51.910;7.724;2023-11-18T14:27:01;8.18;;;5.13;;
39264;SDS011;42646;51.910;7.724;2023-11-18T14:29:30;8.15;;;5.32;;
39264;SDS011;42646;51.910;7.724;2023-11-18T14:31:58;9.60;;;5.40;;
39264;SDS011;42646;51.910;7.724;2023-11-18T14:34:27;7.97;;;5.18;;
39264;SDS011;42646;51.910;7.724;2023-11-18T14:36:55;8.02;;;5.22;;
39264;SDS011;42646;51.910;7.724;2023-11-18T14:39:23;7.93;;;5.50;;
39264;SDS011;42646;51.910;7.724;2023-11-18T14:41:52;9.38;;;5.50;;
39264;SDS011;42646;51.910;7.724;2023-11-18T14:44:20;9.18;;;5.57;;
39264;SDS011;42646;51.910;7.724;2023-11-18T14:46:47;7.68;;;5.15;;
39264;SDS011;42646;51.910;7.724;2023-11-18T14:49:15;8.90;;;5.32;;
39264;SDS011;42646;51.910;7.724;2023-11-18T14:51:45;8.00;;;5.22;;
39264;SDS011;42646;51.910;7.724;2023-11-18T14:54:14;10.38;;;5.60;;
39264;SDS011;42646;51.910;7.724;2023-11-18T14:56:42;8.05;;;4.85;;
39264;SDS011;42646;51.910;7.724;2023-11-18T14:59:13;9.63;;;4.95;;
39264;SDS011;42646;51.910;7.724;2023-11-18T15:01:41;7.70;;;5.28;;
39264;SDS011;42646;51.910;7.724;2023-11-18T15:04:10;7.82;;;5.30;;